Messwerte Atka, Atka Airport

Temperatur

Temperatur
°C
1603792800 2.00 2.00
1603796400 3.00 3.00 7
1603800000 4.00 4.00 7
1603803600 5.00 5.00 7
1603807200 6.00 6.00
1603810800 7.00 7.00 7
1603814400 8.00 8.00
1603818000 9.00 9.00 7
1603821600 10.00 10.00 7
1603825200 11.00 11.00 7
1603828800 12.00 12.00 7
1603832400 13.00 13.00 8
1603836000 14.00 14.00 9
1603839600 15.00 15.00 9
1603843200 16.00 16.00 9
1603846800 17.00 17.00 9
1603850400 18.00 18.00 9
1603854000 19.00 19.00
1603857600 20.00 20.00 8
1603861200 21.00 21.00 7
1603864800 22.00 22.00 7
1603868400 23.00 23.00 7
1603872000 0.00 0.00 7
1603875600 1.00 1.00 7

Aktuellste Messwerte

Wettercharakter
Wetter: bedeckt
Temperatur
7 °C
Feuchtigkeit
93 %
Wind
25 km/hWindrichtung: West
Luftdruck
1019 hPa
Messzeit: 28. Oktober 2020, 2.00Datenquelle: METAR

Weitere Messstationen in der Nähe

Messstation Temperatur Entfernung
Adak Island - 171 km

Wind

Windrichtung Böen Mittelwind
° km/h km/h
1603792800 2.00 1.00 - 2.00
1603796400 3.00 2.00 - 3.00 40° 5
1603800000 4.00 3.00 - 4.00 80° 5
1603803600 5.00 4.00 - 5.00 0
1603807200 6.00 5.00 - 6.00
1603810800 7.00 6.00 - 7.00 110° 10
1603814400 8.00 7.00 - 8.00
1603818000 9.00 8.00 - 9.00 110° 20
1603821600 10.00 9.00 - 10.00 90° 20
1603825200 11.00 10.00 - 11.00 80° 15
1603828800 12.00 11.00 - 12.00 80° 15
1603832400 13.00 12.00 - 13.00 100° 15
1603836000 14.00 13.00 - 14.00 190° 15
1603839600 15.00 14.00 - 15.00 170° 15
1603843200 16.00 15.00 - 16.00 210° 20
1603846800 17.00 16.00 - 17.00 200° 20
1603850400 18.00 17.00 - 18.00 210° 20
1603854000 19.00 18.00 - 19.00
1603857600 20.00 19.00 - 20.00 270° 20
1603861200 21.00 20.00 - 21.00 290° 20
1603864800 22.00 21.00 - 22.00 270° 15
1603868400 23.00 22.00 - 23.00 280° 10
1603872000 0.00 23.00 - 0.00 280° 20
1603875600 1.00 0.00 - 1.00 270° 25

Ihre Wetterstation

Fehlt Ihre Wetterstation auf unserem Portal?

Schreiben Sie an network@meteonews.ch